Time;durP1;ratioP1;P1;durP2;ratioP2;P2;SDS_P1;SDS_P2;PMS_P1;PMS_P2;Temp;Humidity;BMP_temperature;BMP_pressure;BME280_temperature;BME280_humidity;BME280_pressure;Samples;Min_cycle;Max_cycle;Signal;HPM_P1;HPM_P2
2020/12/12 00:02:15;;;;;;;11.87;8.97;;;3.80;99.90;;;;;;5044165;28;20245;-76
2020/12/12 00:04:42;;;;;;;10.20;8.57;;;3.80;99.90;;;;;;5033375;28;20195;-76
2020/12/12 00:07:08;;;;;;;12.93;8.52;;;3.80;99.90;;;;;;5052381;28;20711;-76
2020/12/12 00:09:34;;;;;;;9.67;7.30;;;3.80;99.90;;;;;;5055620;28;20194;-76
2020/12/12 00:12:00;;;;;;;8.93;7.10;;;3.70;99.90;;;;;;5054022;28;20516;-76
2020/12/12 00:14:26;;;;;;;10.50;8.25;;;3.70;99.90;;;;;;5051968;28;20195;-76
2020/12/12 00:16:52;;;;;;;16.70;10.47;;;3.70;99.90;;;;;;5046706;28;20190;-76
2020/12/12 00:19:18;;;;;;;16.55;12.88;;;3.60;99.90;;;;;;5051281;28;20182;-76
2020/12/12 00:21:43;;;;;;;14.07;10.90;;;3.60;99.90;;;;;;5051343;28;20278;-76
2020/12/12 00:24:09;;;;;;;15.10;9.47;;;3.70;99.90;;;;;;5055881;28;20421;-76
2020/12/12 00:26:34;;;;;;;11.20;8.90;;;3.70;99.90;;;;;;5040375;28;20217;-75
2020/12/12 00:29:00;;;;;;;11.63;9.63;;;3.70;99.90;;;;;;5047911;28;20225;-76
2020/12/12 00:31:25;;;;;;;12.00;9.40;;;3.70;99.90;;;;;;5055828;28;20543;-76
2020/12/12 00:33:51;;;;;;;12.00;9.33;;;3.70;99.90;;;;;;5039679;28;20191;-76
2020/12/12 00:36:16;;;;;;;13.23;8.43;;;3.70;99.90;;;;;;5054410;28;20182;-75
2020/12/12 00:38:42;;;;;;;10.83;7.60;;;3.80;99.90;;;;;;5075679;28;20211;-76
2020/12/12 00:41:08;;;;;;;9.90;7.57;;;3.80;99.90;;;;;;5067718;28;20190;-76
2020/12/12 00:43:34;;;;;;;11.80;8.13;;;3.80;99.90;;;;;;5053657;28;20443;-76
2020/12/12 00:46:03;;;;;;;12.90;8.63;;;3.80;99.90;;;;;;5053672;28;20219;-76
2020/12/12 00:48:28;;;;;;;12.38;8.93;;;3.90;99.90;;;;;;5036053;28;20500;-76
2020/12/12 00:50:54;;;;;;;13.60;10.20;;;3.90;99.90;;;;;;5040213;28;20192;-76
2020/12/12 00:53:19;;;;;;;12.63;9.43;;;3.90;99.90;;;;;;5052534;28;20221;-76
2020/12/12 00:55:45;;;;;;;17.13;9.80;;;3.90;99.90;;;;;;5055055;28;20648;-76
2020/12/12 00:58:10;;;;;;;15.60;8.07;;;4.00;99.90;;;;;;5045664;28;20531;-76
2020/12/12 01:00:36;;;;;;;9.93;6.77;;;4.00;99.90;;;;;;5053817;28;20269;-76
2020/12/12 01:03:03;;;;;;;12.30;7.40;;;4.00;99.90;;;;;;5050230;28;20630;-76
2020/12/12 01:05:31;;;;;;;8.45;6.28;;;4.00;99.90;;;;;;5048456;28;20214;-76
2020/12/12 01:07:58;;;;;;;8.45;7.47;;;4.00;99.90;;;;;;5048841;28;20304;-76
2020/12/12 01:10:24;;;;;;;9.60;6.22;;;4.00;99.90;;;;;;5048885;28;20175;-75
2020/12/12 01:12:51;;;;;;;11.75;6.60;;;4.00;99.90;;;;;;5038267;28;20214;-76
2020/12/12 01:15:18;;;;;;;8.02;6.10;;;4.10;99.90;;;;;;5038005;28;20547;-75
2020/12/12 01:17:43;;;;;;;9.50;6.70;;;4.10;99.90;;;;;;5054362;28;20259;-75
2020/12/12 01:20:09;;;;;;;6.70;5.00;;;4.10;99.90;;;;;;5052662;28;20228;-76
2020/12/12 01:22:34;;;;;;;7.90;5.60;;;4.10;99.90;;;;;;5061247;28;20186;-75
2020/12/12 01:25:00;;;;;;;6.83;5.50;;;4.10;99.90;;;;;;5039536;28;20183;-76
2020/12/12 01:27:26;;;;;;;7.10;5.27;;;4.10;99.90;;;;;;5054283;28;20451;-76
2020/12/12 01:29:51;;;;;;;6.60;5.37;;;4.10;99.90;;;;;;5050268;28;20190;-76
2020/12/12 01:32:17;;;;;;;7.13;5.70;;;4.10;99.90;;;;;;5054423;28;20212;-76
2020/12/12 01:34:42;;;;;;;8.70;5.50;;;4.10;99.90;;;;;;5050153;28;20194;-76
2020/12/12 01:37:08;;;;;;;7.33;5.17;;;4.10;99.90;;;;;;5048762;28;20729;-76
2020/12/12 01:39:33;;;;;;;7.60;4.90;;;4.10;99.90;;;;;;5035170;28;20175;-75
2020/12/12 01:41:58;;;;;;;7.50;5.70;;;4.10;99.90;;;;;;5041031;28;20282;-76
2020/12/12 01:44:24;;;;;;;7.57;6.10;;;4.00;99.90;;;;;;5034583;28;20650;-76
2020/12/12 01:46:50;;;;;;;7.43;5.00;;;3.90;99.90;;;;;;5049121;28;20232;-76
2020/12/12 01:49:15;;;;;;;10.63;5.17;;;3.80;99.90;;;;;;5052412;28;20280;-76
2020/12/12 01:51:44;;;;;;;7.43;5.60;;;3.70;99.90;;;;;;5040540;28;20959;-76
2020/12/12 01:54:10;;;;;;;7.40;4.88;;;3.70;99.90;;;;;;5035359;28;20544;-76
2020/12/12 01:56:37;;;;;;;6.77;5.67;;;3.70;99.90;;;;;;5040227;28;20190;-76
2020/12/12 01:59:02;;;;;;;7.07;5.65;;;3.70;99.90;;;;;;5053800;28;20438;-76
2020/12/12 02:01:32;;;;;;;8.70;5.90;;;3.70;99.90;;;;;;5052185;28;20301;-76
2020/12/12 02:03:59;;;;;;;6.75;5.07;;;3.70;99.90;;;;;;5034279;28;20235;-76
2020/12/12 02:06:25;;;;;;;5.20;4.53;;;3.70;99.90;;;;;;5038122;28;20556;-76
2020/12/12 02:08:51;;;;;;;8.70;6.20;;;3.70;99.90;;;;;;5049304;28;20341;-76
2020/12/12 02:11:18;;;;;;;7.32;4.90;;;3.80;99.90;;;;;;5049435;28;20261;-76
2020/12/12 02:13:47;;;;;;;7.05;4.95;;;3.80;99.90;;;;;;5053923;28;20193;-76
2020/12/12 02:16:18;;;;;;;6.68;5.20;;;3.90;99.90;;;;;;5044912;28;20186;-76
2020/12/12 02:18:44;;;;;;;7.20;4.95;;;3.90;99.90;;;;;;5050466;28;20191;-76
2020/12/12 02:21:09;;;;;;;7.10;4.87;;;3.90;99.90;;;;;;5073650;28;20177;-76
2020/12/12 02:23:35;;;;;;;6.23;5.13;;;4.00;99.90;;;;;;5065500;28;20471;-75
2020/12/12 02:26:02;;;;;;;5.35;4.63;;;4.00;99.90;;;;;;5049201;28;20189;-76
2020/12/12 02:28:45;;;;;;;7.50;5.25;;;4.00;99.90;;;;;;5049043;28;20624;-76
2020/12/12 02:31:10;;;;;;;8.07;5.70;;;4.10;99.90;;;;;;5042080;28;20186;-76
2020/12/12 02:33:38;;;;;;;6.73;4.87;;;4.10;99.90;;;;;;5051118;28;20195;-76
2020/12/12 02:36:05;;;;;;;6.95;5.63;;;4.10;99.90;;;;;;5042416;28;20210;-76
2020/12/12 02:38:30;;;;;;;5.45;4.75;;;4.20;99.90;;;;;;5042032;28;20187;-76
2020/12/12 02:40:56;;;;;;;5.83;5.20;;;4.20;99.90;;;;;;5035406;28;20194;-76
2020/12/12 02:43:21;;;;;;;8.03;5.13;;;4.20;99.90;;;;;;5037372;28;20210;-76
2020/12/12 02:45:48;;;;;;;6.50;4.70;;;4.20;99.90;;;;;;5051163;28;20244;-76
2020/12/12 02:48:13;;;;;;;6.15;5.22;;;4.20;99.90;;;;;;5048596;28;20234;-76
2020/12/12 02:50:40;;;;;;;6.13;5.30;;;4.20;99.90;;;;;;5053332;28;20548;-76
2020/12/12 02:53:05;;;;;;;6.80;4.68;;;4.20;99.90;;;;;;5052996;28;20201;-76
2020/12/12 02:55:31;;;;;;;6.13;5.07;;;4.30;99.90;;;;;;5053264;28;20192;-76
2020/12/12 02:57:56;;;;;;;6.03;5.33;;;4.30;99.90;;;;;;5048477;28;20201;-75
2020/12/12 03:00:24;;;;;;;8.27;5.17;;;4.30;99.90;;;;;;5052712;28;20185;-75
2020/12/12 03:02:49;;;;;;;7.65;5.38;;;4.30;99.90;;;;;;5048333;28;20194;-76
2020/12/12 03:05:16;;;;;;;6.80;5.20;;;4.30;99.90;;;;;;5052759;28;20265;-76
2020/12/12 03:07:41;;;;;;;8.88;6.00;;;4.30;99.90;;;;;;5052705;28;20229;-76
2020/12/12 03:10:07;;;;;;;6.57;5.33;;;4.30;99.90;;;;;;5052822;28;20171;-76
2020/12/12 03:12:37;;;;;;;7.77;5.87;;;4.30;99.90;;;;;;5048257;28;20281;-76
2020/12/12 03:15:08;;;;;;;6.45;5.47;;;4.30;99.90;;;;;;5047747;28;20195;-76
2020/12/12 03:17:33;;;;;;;10.18;6.47;;;4.30;99.90;;;;;;5048181;28;20709;-76
2020/12/12 03:19:59;;;;;;;9.40;7.13;;;4.30;99.90;;;;;;5059541;28;20313;-76
2020/12/12 03:22:25;;;;;;;8.47;5.87;;;4.30;99.90;;;;;;5052036;28;20685;-76
2020/12/12 03:24:51;;;;;;;9.18;6.53;;;4.20;99.90;;;;;;5047917;28;20201;-76
2020/12/12 03:27:16;;;;;;;10.13;6.37;;;4.30;99.90;;;;;;5052592;28;20182;-76
2020/12/12 03:29:42;;;;;;;8.60;6.50;;;4.20;99.90;;;;;;5050595;28;20195;-76
2020/12/12 03:32:09;;;;;;;9.80;7.33;;;4.20;99.90;;;;;;5048103;28;20184;-76
2020/12/12 03:34:35;;;;;;;13.25;8.02;;;4.20;99.90;;;;;;5034122;28;20187;-76
2020/12/12 03:37:02;;;;;;;11.68;7.30;;;4.20;99.90;;;;;;5042306;28;20217;-75
2020/12/12 03:39:27;;;;;;;9.30;6.50;;;4.20;99.90;;;;;;5051852;28;20185;-76
2020/12/12 03:41:53;;;;;;;10.80;6.63;;;4.20;99.90;;;;;;5048027;28;20187;-76
2020/12/12 03:44:18;;;;;;;11.23;7.30;;;4.20;99.90;;;;;;5052423;28;20512;-76
2020/12/12 03:46:44;;;;;;;9.07;6.80;;;4.30;99.90;;;;;;5037841;28;20183;-76
2020/12/12 03:49:09;;;;;;;12.03;7.43;;;4.30;99.90;;;;;;5047309;28;20305;-76
2020/12/12 03:51:35;;;;;;;11.20;7.10;;;4.30;99.90;;;;;;5051848;28;20178;-76
2020/12/12 03:54:00;;;;;;;8.00;6.57;;;4.30;99.90;;;;;;5051953;28;20209;-76
2020/12/12 03:56:26;;;;;;;8.07;6.07;;;4.30;99.90;;;;;;5048745;28;20182;-75
2020/12/12 03:58:51;;;;;;;9.00;7.40;;;4.30;99.90;;;;;;5054594;28;20190;-76
2020/12/12 04:01:17;;;;;;;9.10;6.97;;;4.30;99.90;;;;;;5060001;28;20194;-76
2020/12/12 04:03:42;;;;;;;12.77;6.87;;;4.30;99.90;;;;;;5047569;28;20193;-76
2020/12/12 04:06:08;;;;;;;8.80;6.07;;;4.30;99.90;;;;;;5038428;28;20190;-76
2020/12/12 04:08:33;;;;;;;8.90;6.30;;;4.30;99.90;;;;;;5048054;28;20207;-75
2020/12/12 04:11:02;;;;;;;9.87;6.73;;;4.30;99.90;;;;;;5052085;28;20188;-76
2020/12/12 04:13:29;;;;;;;11.25;7.13;;;4.30;99.90;;;;;;5050565;28;20363;-76
2020/12/12 04:15:54;;;;;;;8.63;6.70;;;4.30;99.90;;;;;;5047539;28;20187;-76
2020/12/12 04:18:20;;;;;;;11.17;7.00;;;4.30;99.90;;;;;;5042770;28;20183;-76
2020/12/12 04:20:46;;;;;;;9.53;6.97;;;4.30;99.90;;;;;;5046701;28;20190;-75
2020/12/12 04:23:12;;;;;;;9.93;7.13;;;4.30;99.90;;;;;;5051934;28;20470;-76
2020/12/12 04:25:37;;;;;;;11.47;7.50;;;4.30;99.90;;;;;;5047787;28;20179;-76
2020/12/12 04:28:03;;;;;;;9.20;7.17;;;4.30;99.90;;;;;;5037842;28;20489;-75
2020/12/12 04:30:28;;;;;;;12.57;7.87;;;4.30;99.90;;;;;;5040003;28;20198;-76
2020/12/12 04:32:54;;;;;;;7.67;6.60;;;4.40;99.90;;;;;;5051660;28;20187;-77
2020/12/12 04:35:19;;;;;;;11.97;7.17;;;4.40;99.90;;;;;;5049237;28;20597;-76
2020/12/12 04:37:45;;;;;;;11.50;6.30;;;4.40;99.90;;;;;;5042117;28;20189;-75
2020/12/12 04:40:11;;;;;;;10.70;7.67;;;4.40;99.90;;;;;;5050441;28;20264;-76
2020/12/12 04:42:37;;;;;;;10.87;7.50;;;4.40;99.90;;;;;;5051834;28;20664;-76
2020/12/12 04:45:04;;;;;;;7.93;7.10;;;4.50;99.90;;;;;;5047257;28;20191;-76
2020/12/12 04:47:30;;;;;;;10.52;7.18;;;4.50;99.90;;;;;;5049483;28;20230;-76
2020/12/12 04:49:57;;;;;;;10.10;7.60;;;4.40;99.90;;;;;;5040482;28;20591;-76
2020/12/12 04:52:24;;;;;;;9.90;7.38;;;4.40;99.90;;;;;;5051745;28;20417;-76
2020/12/12 04:54:51;;;;;;;9.73;7.40;;;4.40;99.90;;;;;;5054794;28;20171;-76
2020/12/12 04:57:16;;;;;;;11.60;7.25;;;4.40;99.90;;;;;;5054329;28;20186;-75
2020/12/12 04:59:43;;;;;;;9.97;6.87;;;4.30;99.90;;;;;;5055238;28;20175;-76
2020/12/12 05:02:12;;;;;;;10.20;7.28;;;4.30;99.90;;;;;;5050622;28;20187;-76
2020/12/12 05:04:41;;;;;;;9.77;7.43;;;4.30;99.90;;;;;;5039820;28;20180;-75
2020/12/12 05:07:07;;;;;;;9.63;6.63;;;4.30;99.90;;;;;;5051240;28;20187;-76
2020/12/12 05:09:33;;;;;;;7.78;6.90;;;4.30;99.90;;;;;;5055359;28;20214;-76
2020/12/12 05:11:59;;;;;;;9.00;6.37;;;4.40;99.90;;;;;;5045991;28;20685;-76
2020/12/12 05:14:25;;;;;;;8.45;6.03;;;4.40;99.90;;;;;;5075068;28;20185;-76
2020/12/12 05:16:54;;;;;;;6.43;5.60;;;4.40;99.90;;;;;;5075078;28;20185;-76
2020/12/12 05:19:20;;;;;;;9.15;6.68;;;4.40;99.90;;;;;;5053584;28;20190;-76
2020/12/12 05:21:47;;;;;;;7.60;5.60;;;4.50;99.90;;;;;;5074978;28;20184;-75
2020/12/12 05:24:12;;;;;;;8.63;7.18;;;4.50;99.90;;;;;;5051866;28;20185;-76
2020/12/12 05:26:38;;;;;;;8.57;6.50;;;4.50;99.90;;;;;;5043622;28;20186;-75
2020/12/12 05:29:05;;;;;;;11.67;7.37;;;4.50;99.90;;;;;;5045118;28;20242;-76
2020/12/12 05:31:30;;;;;;;9.82;6.90;;;4.60;99.90;;;;;;5055121;28;20181;-76
2020/12/12 05:33:56;;;;;;;8.20;5.60;;;4.60;99.90;;;;;;5050177;28;20277;-76
2020/12/12 05:36:29;;;;;;;7.63;5.77;;;4.60;99.90;;;;;;5052997;28;20186;-76
2020/12/12 05:39:01;;;;;;;9.90;6.45;;;4.60;99.90;;;;;;5054791;28;20194;-76
2020/12/12 05:41:29;;;;;;;6.80;6.10;;;4.60;99.90;;;;;;5049878;28;20182;-76
2020/12/12 05:43:55;;;;;;;8.73;6.50;;;4.60;99.90;;;;;;5054419;28;20193;-76
2020/12/12 05:46:22;;;;;;;9.80;6.60;;;4.60;99.90;;;;;;5048570;28;20203;-76
2020/12/12 05:48:48;;;;;;;7.97;6.60;;;4.60;99.90;;;;;;5042595;28;20584;-76
2020/12/12 05:51:15;;;;;;;9.77;7.03;;;4.60;99.90;;;;;;5054139;28;20277;-76
2020/12/12 05:53:43;;;;;;;9.82;7.60;;;4.60;99.90;;;;;;5054028;28;20707;-76
2020/12/12 05:56:12;;;;;;;11.55;7.15;;;4.60;99.90;;;;;;5049638;28;20716;-76
2020/12/12 05:58:45;;;;;;;7.97;6.20;;;4.60;99.90;;;;;;5054146;28;20196;-76
2020/12/12 06:01:17;;;;;;;9.95;7.20;;;4.60;99.90;;;;;;5047764;28;20211;-76
2020/12/12 06:03:51;;;;;;;9.75;6.60;;;4.60;99.90;;;;;;5036652;28;20186;-75
2020/12/12 06:06:22;;;;;;;9.38;6.13;;;4.60;99.90;;;;;;5044505;28;20192;-76
2020/12/12 06:09:00;;;;;;;6.80;5.68;;;4.60;99.90;;;;;;5053725;28;20221;-76
2020/12/12 06:11:28;;;;;;;10.90;6.85;;;4.60;99.90;;;;;;5052725;28;20206;-76
2020/12/12 06:13:57;;;;;;;8.77;6.20;;;4.60;99.90;;;;;;5053942;28;20221;-76
2020/12/12 06:16:25;;;;;;;8.93;6.00;;;4.60;99.90;;;;;;5043180;28;20183;-76
2020/12/12 06:19:14;;;;;;;7.25;5.53;;;4.60;99.90;;;;;;5051753;28;20638;-76
2020/12/12 06:21:44;;;;;;;7.82;5.28;;;4.60;99.90;;;;;;5061845;28;20272;-76
2020/12/12 06:24:13;;;;;;;7.10;6.15;;;4.60;99.90;;;;;;5072484;28;20186;-76
2020/12/12 06:26:48;;;;;;;9.75;6.53;;;4.60;99.90;;;;;;5051466;28;20563;-75
2020/12/12 06:29:15;;;;;;;7.30;5.93;;;4.60;99.90;;;;;;5052728;28;20221;-76
2020/12/12 06:31:42;;;;;;;6.80;5.50;;;4.60;99.90;;;;;;5037158;28;20187;-75
2020/12/12 06:34:07;;;;;;;10.18;6.55;;;4.60;99.90;;;;;;5040273;28;20175;-76
2020/12/12 06:36:34;;;;;;;10.50;6.30;;;4.60;99.90;;;;;;5052843;28;20569;-75
2020/12/12 06:39:24;;;;;;;6.75;5.60;;;4.60;99.90;;;;;;5034279;28;20234;-76
2020/12/12 06:41:52;;;;;;;7.88;5.57;;;4.60;99.90;;;;;;5041087;28;20183;-75
2020/12/12 06:44:35;;;;;;;8.07;5.40;;;4.60;99.90;;;;;;5040977;28;20187;-76
2020/12/12 06:47:01;;;;;;;9.23;5.80;;;4.60;99.90;;;;;;5032941;28;20235;-76
2020/12/12 06:49:27;;;;;;;7.32;5.80;;;4.60;99.90;;;;;;5048128;28;20585;-76
2020/12/12 06:51:53;;;;;;;10.80;6.87;;;4.60;99.90;;;;;;5052824;28;20185;-76
2020/12/12 06:54:20;;;;;;;9.67;6.67;;;4.60;99.90;;;;;;5052955;28;20185;-75
2020/12/12 06:56:45;;;;;;;8.18;5.78;;;4.60;99.90;;;;;;5053214;28;20229;-76
2020/12/12 06:59:49;;;;;;;6.40;5.77;;;4.60;99.90;;;;;;5046922;28;20191;-76
2020/12/12 07:02:17;;;;;;;6.03;4.57;;;4.60;99.90;;;;;;5030349;28;20201;-76
2020/12/12 07:04:46;;;;;;;7.60;5.60;;;4.50;99.90;;;;;;5051295;28;20541;-76
2020/12/12 07:07:16;;;;;;;6.93;5.45;;;4.40;99.90;;;;;;5050686;28;20174;-75
2020/12/12 07:09:43;;;;;;;11.77;6.00;;;4.40;99.90;;;;;;5050174;28;20248;-75
2020/12/12 07:12:09;;;;;;;7.50;5.70;;;4.40;99.90;;;;;;5051204;28;20269;-81
2020/12/12 07:14:37;;;;;;;6.50;4.97;;;4.40;99.90;;;;;;5051400;28;20178;-78
2020/12/12 07:17:04;;;;;;;7.10;5.45;;;4.40;99.90;;;;;;5040254;28;20190;-76
2020/12/12 07:19:39;;;;;;;7.65;5.28;;;4.40;99.90;;;;;;5050267;28;20186;-76
2020/12/12 07:22:11;;;;;;;6.10;4.95;;;4.50;99.90;;;;;;5052836;28;20763;-76
2020/12/12 07:24:38;;;;;;;7.82;5.57;;;4.50;99.90;;;;;;5053493;28;20638;-76
2020/12/12 07:27:04;;;;;;;7.28;4.95;;;4.50;99.90;;;;;;5072644;28;20224;-75
2020/12/12 07:29:31;;;;;;;8.43;5.25;;;4.60;99.90;;;;;;5057816;28;20226;-76
2020/12/12 07:31:58;;;;;;;6.80;5.25;;;4.60;99.90;;;;;;5071938;28;20639;-76
2020/12/12 07:34:24;;;;;;;5.43;4.85;;;4.70;99.90;;;;;;5066790;28;20179;-76
2020/12/12 07:37:05;;;;;;;7.18;5.85;;;4.70;99.90;;;;;;5052550;28;20185;-75
2020/12/12 07:39:32;;;;;;;7.72;6.55;;;4.80;99.90;;;;;;5052722;28;20232;-76
2020/12/12 07:41:59;;;;;;;7.47;6.38;;;4.80;99.90;;;;;;5052568;28;20185;-76
2020/12/12 07:44:27;;;;;;;6.72;5.32;;;4.80;99.90;;;;;;5052446;28;20175;-76
2020/12/12 07:46:58;;;;;;;9.95;6.57;;;4.90;99.90;;;;;;5060563;28;20274;-76
2020/12/12 07:49:23;;;;;;;8.48;6.05;;;4.90;99.90;;;;;;5052935;28;20681;-76
2020/12/12 07:52:00;;;;;;;7.43;6.60;;;4.90;99.90;;;;;;5052468;28;20373;-76
2020/12/12 07:54:31;;;;;;;17.27;11.52;;;5.00;99.90;;;;;;5052389;28;20634;-76
2020/12/12 07:56:57;;;;;;;14.75;11.93;;;5.00;99.90;;;;;;5052324;28;20185;-76
2020/12/12 07:59:23;;;;;;;15.97;12.90;;;5.10;99.90;;;;;;5052169;28;20705;-76
2020/12/12 08:01:49;;;;;;;15.50;11.60;;;5.10;99.90;;;;;;5063988;28;20265;-75
2020/12/12 08:04:19;;;;;;;18.50;14.13;;;5.20;99.90;;;;;;5042287;28;20582;-75
2020/12/12 08:06:45;;;;;;;25.20;18.60;;;5.20;99.90;;;;;;5046556;28;20244;-75
2020/12/12 08:09:10;;;;;;;24.27;19.10;;;5.20;99.90;;;;;;5047013;28;20614;-76
2020/12/12 08:11:36;;;;;;;19.97;14.07;;;5.30;99.90;;;;;;5033333;28;20249;-76
2020/12/12 08:14:04;;;;;;;16.20;13.77;;;5.30;99.90;;;;;;5049914;28;20187;-75
2020/12/12 08:16:39;;;;;;;23.65;17.27;;;5.40;99.90;;;;;;5050235;28;20584;-75
2020/12/12 08:19:05;;;;;;;22.38;15.60;;;5.40;99.90;;;;;;5048036;28;20186;-75
2020/12/12 08:21:30;;;;;;;22.55;16.27;;;5.60;99.90;;;;;;5052192;28;20182;-76
2020/12/12 08:23:57;;;;;;;17.97;13.10;;;5.50;99.90;;;;;;5050577;28;20523;-76
2020/12/12 08:26:23;;;;;;;19.80;15.25;;;5.50;99.90;;;;;;5052041;28;20226;-76
2020/12/12 08:28:49;;;;;;;22.60;17.17;;;5.60;99.90;;;;;;5045817;28;20218;-76
2020/12/12 08:31:19;;;;;;;15.93;13.45;;;5.80;99.90;;;;;;5055568;28;20182;-76
2020/12/12 08:33:51;;;;;;;15.27;11.43;;;6.00;99.90;;;;;;5055322;28;20631;-76
2020/12/12 08:36:19;;;;;;;19.67;13.68;;;6.30;99.90;;;;;;5056019;28;20187;-75
2020/12/12 08:38:53;;;;;;;16.15;12.40;;;6.40;99.90;;;;;;5039610;28;20235;-75
2020/12/12 08:41:19;;;;;;;13.35;10.10;;;6.40;99.90;;;;;;5055763;28;20182;-76
2020/12/12 08:43:45;;;;;;;13.70;9.85;;;6.40;99.90;;;;;;5043362;28;20194;-79
2020/12/12 08:46:15;;;;;;;11.47;9.10;;;6.40;99.90;;;;;;5055295;28;20526;-76
2020/12/12 08:48:41;;;;;;;9.23;7.00;;;6.50;99.90;;;;;;5053794;28;20499;-76
2020/12/12 08:51:08;;;;;;;8.40;6.93;;;6.50;99.90;;;;;;5055470;28;20179;-76
2020/12/12 08:53:35;;;;;;;10.63;7.72;;;6.40;99.90;;;;;;5040822;28;20191;-75
2020/12/12 08:56:03;;;;;;;10.23;7.38;;;6.40;99.90;;;;;;5035368;28;20191;-76
2020/12/12 08:58:37;;;;;;;8.43;7.00;;;6.50;99.90;;;;;;5035941;28;20191;-76
2020/12/12 09:01:30;;;;;;;8.27;6.68;;;6.50;99.90;;;;;;5052517;28;20179;-76
2020/12/12 09:03:56;;;;;;;7.55;6.22;;;6.50;99.90;;;;;;5054492;28;20464;-78
2020/12/12 09:06:23;;;;;;;9.75;6.53;;;6.50;99.90;;;;;;5055206;28;20315;-76
2020/12/12 09:09:07;;;;;;;10.88;6.47;;;6.40;99.90;;;;;;5039386;28;20583;-76
2020/12/12 09:11:32;;;;;;;7.25;6.20;;;6.50;99.90;;;;;;5035376;28;20175;-76
2020/12/12 09:13:59;;;;;;;13.03;9.50;;;6.60;99.90;;;;;;5049154;28;20182;-76
2020/12/12 09:16:25;;;;;;;8.80;6.80;;;6.70;99.90;;;;;;5035176;28;20449;-76
2020/12/12 09:18:51;;;;;;;7.43;5.97;;;6.80;99.90;;;;;;5046802;28;20187;-76
2020/12/12 09:21:17;;;;;;;7.25;5.82;;;6.90;99.90;;;;;;5055108;28;20432;-76
2020/12/12 09:23:43;;;;;;;6.07;5.00;;;6.90;99.90;;;;;;5054977;28;20814;-76
2020/12/12 09:26:09;;;;;;;5.27;4.70;;;6.90;99.90;;;;;;5065847;28;20667;-76
2020/12/12 09:28:35;;;;;;;6.15;5.50;;;7.00;99.90;;;;;;5074964;28;20483;-76
2020/12/12 09:31:01;;;;;;;5.28;4.60;;;7.00;99.90;;;;;;5057320;28;20217;-76
2020/12/12 09:33:27;;;;;;;9.10;7.55;;;7.00;99.90;;;;;;5055046;28;20210;-76
2020/12/12 09:35:52;;;;;;;12.97;9.03;;;7.00;99.90;;;;;;5055176;28;20233;-74
2020/12/12 09:38:18;;;;;;;10.17;7.13;;;7.00;99.90;;;;;;5054939;28;20186;-75
2020/12/12 09:40:47;;;;;;;8.00;6.30;;;7.00;99.90;;;;;;5049151;28;20249;-76
2020/12/12 09:43:15;;;;;;;4.90;4.40;;;6.90;99.90;;;;;;5038315;28;20218;-76
2020/12/12 09:45:41;;;;;;;6.63;5.00;;;6.90;99.90;;;;;;5034713;28;20179;-76
2020/12/12 09:48:07;;;;;;;7.38;5.93;;;6.90;99.90;;;;;;5052981;28;20241;-76
2020/12/12 09:50:35;;;;;;;7.33;5.27;;;7.00;99.90;;;;;;5050440;28;20289;-76
2020/12/12 09:53:02;;;;;;;6.13;4.85;;;7.00;99.90;;;;;;5034370;28;20513;-75
2020/12/12 09:55:28;;;;;;;7.45;4.88;;;7.10;99.90;;;;;;5045806;28;20186;-76
2020/12/12 09:57:53;;;;;;;9.23;6.00;;;7.10;99.90;;;;;;5054702;28;20696;-76
2020/12/12 10:00:19;;;;;;;7.43;6.47;;;7.20;99.90;;;;;;5057405;28;20190;-76
2020/12/12 10:02:44;;;;;;;5.50;4.90;;;7.20;99.90;;;;;;5054686;28;20190;-78
2020/12/12 10:05:10;;;;;;;8.57;5.90;;;7.20;99.90;;;;;;5042678;28;20183;-76
2020/12/12 10:07:35;;;;;;;6.97;5.47;;;7.20;99.90;;;;;;5034359;28;20186;-76
2020/12/12 10:10:01;;;;;;;10.93;6.60;;;7.20;99.90;;;;;;5042398;28;20187;-76
2020/12/12 10:12:26;;;;;;;7.53;6.50;;;7.20;99.90;;;;;;5054626;28;20178;-76
2020/12/12 10:14:52;;;;;;;6.50;5.90;;;7.30;99.90;;;;;;5052776;28;20194;-76
2020/12/12 10:17:17;;;;;;;6.10;5.17;;;7.30;99.90;;;;;;5054057;28;20266;-75
2020/12/12 10:19:43;;;;;;;6.50;5.77;;;7.30;99.90;;;;;;5049585;28;20211;-76
2020/12/12 10:22:08;;;;;;;6.07;4.93;;;7.40;99.90;;;;;;5053663;28;20660;-76
2020/12/12 10:24:34;;;;;;;5.27;4.77;;;7.40;99.90;;;;;;5051527;28;20191;-76
2020/12/12 10:26:59;;;;;;;6.87;5.13;;;7.60;99.90;;;;;;5039416;28;20729;-76
2020/12/12 10:29:24;;;;;;;6.60;5.73;;;7.70;99.90;;;;;;5058685;28;20226;-76
2020/12/12 10:31:50;;;;;;;5.53;5.00;;;7.80;99.90;;;;;;5045564;28;20684;-76
2020/12/12 10:34:15;;;;;;;5.93;4.60;;;7.80;99.90;;;;;;5050740;28;20187;-76
2020/12/12 10:36:41;;;;;;;5.60;5.10;;;7.80;99.90;;;;;;5049387;28;20217;-75
2020/12/12 10:39:09;;;;;;;6.97;6.33;;;7.80;99.90;;;;;;5057031;28;20194;-76
2020/12/12 10:41:34;;;;;;;5.95;5.35;;;7.80;99.90;;;;;;5050797;28;20955;-76
2020/12/12 10:44:00;;;;;;;5.50;4.90;;;7.70;99.90;;;;;;5051596;28;20218;-76
2020/12/12 10:46:25;;;;;;;5.27;4.50;;;7.70;99.90;;;;;;5053518;28;20186;-76
2020/12/12 10:48:51;;;;;;;5.13;4.63;;;7.60;99.90;;;;;;5052614;28;20230;-76
2020/12/12 10:51:17;;;;;;;4.23;3.83;;;7.60;99.90;;;;;;5053507;28;20205;-76
2020/12/12 10:53:43;;;;;;;4.80;4.27;;;7.60;99.90;;;;;;5052646;28;20662;-76
2020/12/12 10:56:08;;;;;;;4.93;4.50;;;7.50;99.90;;;;;;5042013;28;20493;-76
2020/12/12 10:58:34;;;;;;;5.30;4.80;;;7.50;99.90;;;;;;5047906;28;20188;-75
2020/12/12 11:01:00;;;;;;;5.87;5.40;;;7.60;99.90;;;;;;5053100;28;20194;-76
2020/12/12 11:03:25;;;;;;;8.90;5.97;;;7.60;99.90;;;;;;5050454;28;20190;-76
2020/12/12 11:05:51;;;;;;;42.60;21.37;;;7.60;99.90;;;;;;5051307;28;20183;-76
2020/12/12 11:08:16;;;;;;;11.33;9.57;;;7.60;99.90;;;;;;5048363;28;20225;-76
2020/12/12 11:10:42;;;;;;;7.83;5.60;;;7.60;99.90;;;;;;5053102;28;20175;-76
2020/12/12 11:13:07;;;;;;;6.47;5.87;;;7.70;99.90;;;;;;5052875;28;20544;-76
2020/12/12 11:15:33;;;;;;;5.77;5.17;;;7.70;99.90;;;;;;5048272;28;20669;-76
2020/12/12 11:18:00;;;;;;;6.30;4.87;;;7.70;99.90;;;;;;5052830;28;20589;-76
2020/12/12 11:20:25;;;;;;;4.65;4.25;;;7.60;99.90;;;;;;5034137;28;20278;-76
2020/12/12 11:22:51;;;;;;;5.07;4.57;;;7.60;99.90;;;;;;5045990;28;20288;-76
2020/12/12 11:25:16;;;;;;;6.30;5.50;;;7.60;99.90;;;;;;5052770;28;20244;-76
2020/12/12 11:27:45;;;;;;;5.73;4.97;;;7.60;99.90;;;;;;5052000;28;20545;-76
2020/12/12 11:30:12;;;;;;;7.18;5.03;;;7.60;99.90;;;;;;5052347;28;20561;-76
2020/12/12 11:32:39;;;;;;;4.75;4.30;;;7.60;99.90;;;;;;5052202;28;20179;-76
2020/12/12 11:37:52;;;;;;;8.75;5.68;;;7.60;99.90;;;;;;5051967;28;20221;-76
2020/12/12 11:40:27;;;;;;;7.95;6.38;;;7.60;99.90;;;;;;5052713;28;20619;-76
2020/12/12 11:43:40;;;;;;;6.25;5.30;;;7.60;99.90;;;;;;5040024;28;20268;-76
2020/12/12 11:48:28;;;;;;;5.97;5.07;;;7.70;99.90;;;;;;5048843;28;20234;-76
2020/12/12 11:50:54;;;;;;;6.17;5.40;;;7.70;99.90;;;;;;5052504;28;20552;-75
2020/12/12 11:53:19;;;;;;;6.47;5.67;;;7.70;99.90;;;;;;5050605;28;20186;-76
2020/12/12 11:55:45;;;;;;;6.03;5.50;;;7.70;99.90;;;;;;5047981;28;20194;-78
2020/12/12 11:58:11;;;;;;;6.80;5.90;;;7.70;99.90;;;;;;5050807;28;20323;-76
2020/12/12 12:00:43;;;;;;;9.23;6.40;;;7.70;99.90;;;;;;5053660;28;20182;-75
2020/12/12 12:03:08;;;;;;;6.72;6.13;;;7.80;99.90;;;;;;5055956;28;20182;-76
2020/12/12 12:05:34;;;;;;;7.27;6.40;;;7.90;99.90;;;;;;5045688;28;20197;-76
2020/12/12 12:07:59;;;;;;;8.50;6.17;;;8.00;99.90;;;;;;5059013;28;20339;-75
2020/12/12 12:10:36;;;;;;;10.40;7.93;;;8.10;99.90;;;;;;5051251;28;20283;-77
2020/12/12 12:13:01;;;;;;;18.42;9.30;;;8.10;99.90;;;;;;5069714;28;20540;-75
2020/12/12 12:15:27;;;;;;;10.90;9.10;;;8.20;99.90;;;;;;5055927;28;20189;-75
2020/12/12 12:17:52;;;;;;;9.07;7.33;;;8.30;99.90;;;;;;5065077;28;20181;-76
2020/12/12 12:20:21;;;;;;;6.77;6.07;;;8.30;99.90;;;;;;5054291;28;20194;-76
2020/12/12 12:22:46;;;;;;;8.93;6.85;;;8.30;99.90;;;;;;5058708;28;20178;-75
2020/12/12 12:25:12;;;;;;;7.80;5.70;;;8.30;99.90;;;;;;5058493;28;20193;-76
2020/12/12 12:27:39;;;;;;;6.70;6.10;;;8.30;99.90;;;;;;5054228;28;20190;-76
2020/12/12 12:30:04;;;;;;;7.30;6.60;;;8.20;99.90;;;;;;5056951;28;20186;-76
2020/12/12 12:32:30;;;;;;;5.80;5.30;;;8.30;99.90;;;;;;5042295;28;20673;-76
2020/12/12 12:34:55;;;;;;;7.27;5.73;;;8.20;99.90;;;;;;5076666;28;20208;-76
2020/12/12 12:37:21;;;;;;;6.97;5.97;;;8.20;99.90;;;;;;5054779;28;20186;-75
2020/12/12 12:39:46;;;;;;;7.03;6.33;;;8.20;99.90;;;;;;5057761;28;20273;-76
2020/12/12 12:42:12;;;;;;;6.10;5.47;;;8.20;99.90;;;;;;5051549;28;20202;-76
2020/12/12 12:44:37;;;;;;;7.60;6.23;;;8.10;99.90;;;;;;5043622;28;20552;-76
2020/12/12 12:47:03;;;;;;;6.60;5.70;;;8.10;99.90;;;;;;5038447;28;20242;-76
2020/12/12 12:49:28;;;;;;;5.73;5.13;;;8.10;99.90;;;;;;5049776;28;20221;-76
2020/12/12 12:51:54;;;;;;;6.93;6.27;;;8.20;99.90;;;;;;5049704;28;20294;-76
2020/12/12 12:54:20;;;;;;;5.47;4.97;;;8.20;99.90;;;;;;5052913;28;20191;-76
2020/12/12 12:56:45;;;;;;;6.57;5.70;;;8.20;99.90;;;;;;5055778;28;20304;-76
2020/12/12 12:59:11;;;;;;;5.30;4.80;;;8.20;99.90;;;;;;5053237;28;20441;-76